sensor_id;sensor_type;location;lat;lon;timestamp;temperature;humidity
2687;DHT22;1353;51.386;7.028;2022-07-23T00:00:13;15.00;99.90
2687;DHT22;1353;51.386;7.028;2022-07-23T00:02:40;15.00;99.90
2687;DHT22;1353;51.386;7.028;2022-07-23T00:05:08;14.90;99.90
2687;DHT22;1353;51.386;7.028;2022-07-23T00:07:37;14.90;99.90
2687;DHT22;1353;51.386;7.028;2022-07-23T00:10:07;14.80;99.90
2687;DHT22;1353;51.386;7.028;2022-07-23T00:12:34;14.90;99.90
2687;DHT22;1353;51.386;7.028;2022-07-23T00:15:03;14.80;99.90
2687;DHT22;1353;51.386;7.028;2022-07-23T00:17:30;14.90;99.90
2687;DHT22;1353;51.386;7.028;2022-07-23T00:19:57;14.90;99.90
2687;DHT22;1353;51.386;7.028;2022-07-23T00:22:24;14.90;99.90
2687;DHT22;1353;51.386;7.028;2022-07-23T00:24:51;14.90;99.90
2687;DHT22;1353;51.386;7.028;2022-07-23T00:27:19;14.80;99.90
2687;DHT22;1353;51.386;7.028;2022-07-23T00:29:46;14.80;99.90
2687;DHT22;1353;51.386;7.028;2022-07-23T00:32:12;14.70;99.90
2687;DHT22;1353;51.386;7.028;2022-07-23T00:34:39;14.70;99.90
2687;DHT22;1353;51.386;7.028;2022-07-23T00:37:06;14.80;99.90
2687;DHT22;1353;51.386;7.028;2022-07-23T00:39:32;14.70;99.90
2687;DHT22;1353;51.386;7.028;2022-07-23T00:41:59;14.80;99.90
2687;DHT22;1353;51.386;7.028;2022-07-23T00:44:28;14.80;99.90
2687;DHT22;1353;51.386;7.028;2022-07-23T00:46:57;14.80;99.90
2687;DHT22;1353;51.386;7.028;2022-07-23T00:49:25;14.70;99.90
2687;DHT22;1353;51.386;7.028;2022-07-23T00:51:52;14.70;99.90
2687;DHT22;1353;51.386;7.028;2022-07-23T00:54:22;14.70;99.90
2687;DHT22;1353;51.386;7.028;2022-07-23T00:56:48;14.70;99.90
2687;DHT22;1353;51.386;7.028;2022-07-23T00:59:15;14.70;99.90
2687;DHT22;1353;51.386;7.028;2022-07-23T01:01:44;14.70;99.90
2687;DHT22;1353;51.386;7.028;2022-07-23T01:04:13;14.70;99.90
2687;DHT22;1353;51.386;7.028;2022-07-23T01:06:41;14.70;99.90
2687;DHT22;1353;51.386;7.028;2022-07-23T01:09:09;14.70;99.90
2687;DHT22;1353;51.386;7.028;2022-07-23T01:11:36;14.70;99.90
2687;DHT22;1353;51.386;7.028;2022-07-23T01:14:11;14.70;99.90
2687;DHT22;1353;51.386;7.028;2022-07-23T01:16:38;14.70;99.90
2687;DHT22;1353;51.386;7.028;2022-07-23T01:19:07;14.70;99.90
2687;DHT22;1353;51.386;7.028;2022-07-23T01:21:38;14.70;99.90
2687;DHT22;1353;51.386;7.028;2022-07-23T01:24:07;14.70;99.90
2687;DHT22;1353;51.386;7.028;2022-07-23T01:26:34;14.60;99.90
2687;DHT22;1353;51.386;7.028;2022-07-23T01:29:01;14.70;99.90
2687;DHT22;1353;51.386;7.028;2022-07-23T01:31:28;14.60;99.90
2687;DHT22;1353;51.386;7.028;2022-07-23T01:33:55;14.70;99.90
2687;DHT22;1353;51.386;7.028;2022-07-23T01:36:22;14.60;99.90
2687;DHT22;1353;51.386;7.028;2022-07-23T01:38:49;14.70;99.90
2687;DHT22;1353;51.386;7.028;2022-07-23T01:41:17;14.70;99.90
2687;DHT22;1353;51.386;7.028;2022-07-23T01:43:43;14.70;99.90
2687;DHT22;1353;51.386;7.028;2022-07-23T01:46:10;14.70;99.90
2687;DHT22;1353;51.386;7.028;2022-07-23T01:48:37;14.70;99.90
2687;DHT22;1353;51.386;7.028;2022-07-23T01:51:04;14.70;99.90
2687;DHT22;1353;51.386;7.028;2022-07-23T01:53:31;14.70;99.90
2687;DHT22;1353;51.386;7.028;2022-07-23T01:55:58;14.70;99.90
2687;DHT22;1353;51.386;7.028;2022-07-23T01:58:27;14.70;99.90
2687;DHT22;1353;51.386;7.028;2022-07-23T02:00:54;14.70;99.90
2687;DHT22;1353;51.386;7.028;2022-07-23T02:03:21;14.70;99.90
2687;DHT22;1353;51.386;7.028;2022-07-23T02:05:49;14.60;99.90
2687;DHT22;1353;51.386;7.028;2022-07-23T02:08:16;14.60;99.90
2687;DHT22;1353;51.386;7.028;2022-07-23T02:10:43;14.70;99.90
2687;DHT22;1353;51.386;7.028;2022-07-23T02:13:11;14.70;99.90
2687;DHT22;1353;51.386;7.028;2022-07-23T02:15:39;14.70;99.90
2687;DHT22;1353;51.386;7.028;2022-07-23T02:18:05;14.70;99.90
2687;DHT22;1353;51.386;7.028;2022-07-23T02:20:33;14.80;99.90
2687;DHT22;1353;51.386;7.028;2022-07-23T02:23:00;14.70;99.90
2687;DHT22;1353;51.386;7.028;2022-07-23T02:25:27;14.70;99.90
2687;DHT22;1353;51.386;7.028;2022-07-23T02:27:53;14.70;99.90
2687;DHT22;1353;51.386;7.028;2022-07-23T02:30:20;14.70;99.90
2687;DHT22;1353;51.386;7.028;2022-07-23T02:32:48;14.70;99.90
2687;DHT22;1353;51.386;7.028;2022-07-23T02:35:15;14.70;99.90
2687;DHT22;1353;51.386;7.028;2022-07-23T02:37:42;14.70;99.90
2687;DHT22;1353;51.386;7.028;2022-07-23T02:40:09;14.60;99.90
2687;DHT22;1353;51.386;7.028;2022-07-23T02:42:37;14.60;99.90
2687;DHT22;1353;51.386;7.028;2022-07-23T02:45:04;14.60;99.90
2687;DHT22;1353;51.386;7.028;2022-07-23T02:47:31;14.60;99.90
2687;DHT22;1353;51.386;7.028;2022-07-23T02:49:59;14.40;99.90
2687;DHT22;1353;51.386;7.028;2022-07-23T02:52:26;14.40;99.90
2687;DHT22;1353;51.386;7.028;2022-07-23T02:54:53;14.40;99.90
2687;DHT22;1353;51.386;7.028;2022-07-23T02:57:19;14.50;99.90
2687;DHT22;1353;51.386;7.028;2022-07-23T02:59:46;14.50;99.90
2687;DHT22;1353;51.386;7.028;2022-07-23T03:02:13;14.40;99.90
2687;DHT22;1353;51.386;7.028;2022-07-23T03:04:40;14.30;99.90
2687;DHT22;1353;51.386;7.028;2022-07-23T03:07:09;14.30;99.90
2687;DHT22;1353;51.386;7.028;2022-07-23T03:09:35;14.30;99.90
2687;DHT22;1353;51.386;7.028;2022-07-23T03:12:02;14.20;99.90
2687;DHT22;1353;51.386;7.028;2022-07-23T03:14:29;14.10;99.90
2687;DHT22;1353;51.386;7.028;2022-07-23T03:16:56;14.10;99.90
2687;DHT22;1353;51.386;7.028;2022-07-23T03:19:25;14.00;99.90
2687;DHT22;1353;51.386;7.028;2022-07-23T03:21:51;14.10;99.90
2687;DHT22;1353;51.386;7.028;2022-07-23T03:24:19;14.10;99.90
2687;DHT22;1353;51.386;7.028;2022-07-23T03:26:49;14.10;99.90
2687;DHT22;1353;51.386;7.028;2022-07-23T03:29:15;14.00;99.90
2687;DHT22;1353;51.386;7.028;2022-07-23T03:31:42;13.80;99.90
2687;DHT22;1353;51.386;7.028;2022-07-23T03:34:09;13.70;99.90
2687;DHT22;1353;51.386;7.028;2022-07-23T03:36:36;13.60;99.90
2687;DHT22;1353;51.386;7.028;2022-07-23T03:39:03;13.60;99.90
2687;DHT22;1353;51.386;7.028;2022-07-23T03:41:31;13.50;99.90
2687;DHT22;1353;51.386;7.028;2022-07-23T03:43:58;13.40;99.90
2687;DHT22;1353;51.386;7.028;2022-07-23T03:46:24;13.40;99.90
2687;DHT22;1353;51.386;7.028;2022-07-23T03:48:51;13.40;99.90
2687;DHT22;1353;51.386;7.028;2022-07-23T03:51:18;13.30;99.90
2687;DHT22;1353;51.386;7.028;2022-07-23T03:53:45;13.20;99.90
2687;DHT22;1353;51.386;7.028;2022-07-23T03:56:11;13.20;99.90
2687;DHT22;1353;51.386;7.028;2022-07-23T03:58:39;13.30;99.90
2687;DHT22;1353;51.386;7.028;2022-07-23T04:01:06;13.40;99.90
2687;DHT22;1353;51.386;7.028;2022-07-23T04:03:33;13.40;99.90
2687;DHT22;1353;51.386;7.028;2022-07-23T04:06:00;13.40;99.90
2687;DHT22;1353;51.386;7.028;2022-07-23T04:08:26;13.40;99.90
2687;DHT22;1353;51.386;7.028;2022-07-23T04:10:53;13.40;99.90
2687;DHT22;1353;51.386;7.028;2022-07-23T04:13:20;13.60;99.90
2687;DHT22;1353;51.386;7.028;2022-07-23T04:15:48;13.70;99.90
2687;DHT22;1353;51.386;7.028;2022-07-23T04:18:16;13.80;99.90
2687;DHT22;1353;51.386;7.028;2022-07-23T04:20:43;13.90;99.90
2687;DHT22;1353;51.386;7.028;2022-07-23T04:23:10;14.00;99.90
2687;DHT22;1353;51.386;7.028;2022-07-23T04:25:38;14.10;99.90
2687;DHT22;1353;51.386;7.028;2022-07-23T04:28:04;14.20;99.90
2687;DHT22;1353;51.386;7.028;2022-07-23T04:30:31;14.20;99.90
2687;DHT22;1353;51.386;7.028;2022-07-23T04:32:59;14.30;99.90
2687;DHT22;1353;51.386;7.028;2022-07-23T04:35:26;14.40;99.90
2687;DHT22;1353;51.386;7.028;2022-07-23T04:37:52;14.50;99.90
2687;DHT22;1353;51.386;7.028;2022-07-23T04:40:19;14.60;99.90
2687;DHT22;1353;51.386;7.028;2022-07-23T04:42:46;14.70;99.90
2687;DHT22;1353;51.386;7.028;2022-07-23T04:45:13;14.80;99.90
2687;DHT22;1353;51.386;7.028;2022-07-23T04:47:39;14.70;99.90
2687;DHT22;1353;51.386;7.028;2022-07-23T04:50:08;14.80;99.90
2687;DHT22;1353;51.386;7.028;2022-07-23T04:52:35;15.00;99.90
2687;DHT22;1353;51.386;7.028;2022-07-23T04:55:02;15.50;99.90
2687;DHT22;1353;51.386;7.028;2022-07-23T04:57:29;16.00;99.90
2687;DHT22;1353;51.386;7.028;2022-07-23T04:59:55;16.40;99.90
2687;DHT22;1353;51.386;7.028;2022-07-23T05:02:22;16.40;99.90
2687;DHT22;1353;51.386;7.028;2022-07-23T05:04:49;16.30;99.90
2687;DHT22;1353;51.386;7.028;2022-07-23T05:07:17;16.50;99.90
2687;DHT22;1353;51.386;7.028;2022-07-23T05:09:44;16.00;99.90
2687;DHT22;1353;51.386;7.028;2022-07-23T05:12:10;16.30;99.90
2687;DHT22;1353;51.386;7.028;2022-07-23T05:14:37;15.80;99.90
2687;DHT22;1353;51.386;7.028;2022-07-23T05:17:04;15.40;99.90
2687;DHT22;1353;51.386;7.028;2022-07-23T05:19:30;15.60;99.90
2687;DHT22;1353;51.386;7.028;2022-07-23T05:21:57;15.50;99.90
2687;DHT22;1353;51.386;7.028;2022-07-23T05:24:25;15.30;99.90
2687;DHT22;1353;51.386;7.028;2022-07-23T05:26:52;15.60;99.90
2687;DHT22;1353;51.386;7.028;2022-07-23T05:29:19;15.60;99.90
2687;DHT22;1353;51.386;7.028;2022-07-23T05:31:45;15.70;99.90
2687;DHT22;1353;51.386;7.028;2022-07-23T05:34:12;15.80;99.90
2687;DHT22;1353;51.386;7.028;2022-07-23T05:36:39;15.60;99.90
2687;DHT22;1353;51.386;7.028;2022-07-23T05:39:05;15.50;99.90
2687;DHT22;1353;51.386;7.028;2022-07-23T05:41:33;15.20;99.90
2687;DHT22;1353;51.386;7.028;2022-07-23T05:44:00;15.50;99.90
2687;DHT22;1353;51.386;7.028;2022-07-23T05:46:27;15.40;99.90
2687;DHT22;1353;51.386;7.028;2022-07-23T05:48:54;15.10;99.90
2687;DHT22;1353;51.386;7.028;2022-07-23T05:51:21;15.10;99.90
2687;DHT22;1353;51.386;7.028;2022-07-23T05:53:48;15.50;99.90
2687;DHT22;1353;51.386;7.028;2022-07-23T05:56:15;15.20;99.90
2687;DHT22;1353;51.386;7.028;2022-07-23T05:58:43;15.30;99.90
2687;DHT22;1353;51.386;7.028;2022-07-23T06:01:10;15.50;99.90
2687;DHT22;1353;51.386;7.028;2022-07-23T06:03:38;15.50;99.90
2687;DHT22;1353;51.386;7.028;2022-07-23T06:06:05;15.30;99.90
2687;DHT22;1353;51.386;7.028;2022-07-23T06:08:32;15.60;99.90
2687;DHT22;1353;51.386;7.028;2022-07-23T06:10:59;15.50;99.90
2687;DHT22;1353;51.386;7.028;2022-07-23T06:13:25;15.40;99.90
2687;DHT22;1353;51.386;7.028;2022-07-23T06:15:53;16.00;99.90
2687;DHT22;1353;51.386;7.028;2022-07-23T06:18:20;16.10;99.90
2687;DHT22;1353;51.386;7.028;2022-07-23T06:20:47;16.10;99.90
2687;DHT22;1353;51.386;7.028;2022-07-23T06:23:14;16.00;99.90
2687;DHT22;1353;51.386;7.028;2022-07-23T06:25:40;16.30;99.90
2687;DHT22;1353;51.386;7.028;2022-07-23T06:28:07;16.80;99.90
2687;DHT22;1353;51.386;7.028;2022-07-23T06:30:34;16.30;99.90
2687;DHT22;1353;51.386;7.028;2022-07-23T06:33:02;16.60;99.90
2687;DHT22;1353;51.386;7.028;2022-07-23T06:35:34;16.40;99.90
2687;DHT22;1353;51.386;7.028;2022-07-23T06:38:01;16.50;99.90
2687;DHT22;1353;51.386;7.028;2022-07-23T06:40:28;16.50;99.90
2687;DHT22;1353;51.386;7.028;2022-07-23T06:42:55;16.20;99.90
2687;DHT22;1353;51.386;7.028;2022-07-23T06:45:22;16.40;99.90
2687;DHT22;1353;51.386;7.028;2022-07-23T06:47:48;16.50;99.90
2687;DHT22;1353;51.386;7.028;2022-07-23T06:50:17;17.30;99.90
2687;DHT22;1353;51.386;7.028;2022-07-23T06:52:43;18.70;99.90
2687;DHT22;1353;51.386;7.028;2022-07-23T06:55:10;19.20;99.90
2687;DHT22;1353;51.386;7.028;2022-07-23T06:57:37;18.90;99.90
2687;DHT22;1353;51.386;7.028;2022-07-23T07:00:05;18.70;99.90
2687;DHT22;1353;51.386;7.028;2022-07-23T07:02:32;18.20;99.90
2687;DHT22;1353;51.386;7.028;2022-07-23T07:04:59;18.10;99.90
2687;DHT22;1353;51.386;7.028;2022-07-23T07:07:27;18.30;99.90
2687;DHT22;1353;51.386;7.028;2022-07-23T07:09:54;18.60;99.90
2687;DHT22;1353;51.386;7.028;2022-07-23T07:12:20;19.40;99.90
2687;DHT22;1353;51.386;7.028;2022-07-23T07:14:47;20.00;99.90
2687;DHT22;1353;51.386;7.028;2022-07-23T07:17:14;20.10;99.90
2687;DHT22;1353;51.386;7.028;2022-07-23T07:19:41;20.00;99.90
2687;DHT22;1353;51.386;7.028;2022-07-23T07:22:08;19.80;99.90
2687;DHT22;1353;51.386;7.028;2022-07-23T07:24:36;19.20;99.90
2687;DHT22;1353;51.386;7.028;2022-07-23T07:27:03;20.00;99.90
2687;DHT22;1353;51.386;7.028;2022-07-23T07:29:29;20.60;99.90
2687;DHT22;1353;51.386;7.028;2022-07-23T07:31:56;20.80;99.90
2687;DHT22;1353;51.386;7.028;2022-07-23T07:34:23;22.50;99.90
2687;DHT22;1353;51.386;7.028;2022-07-23T07:36:50;22.20;99.90
2687;DHT22;1353;51.386;7.028;2022-07-23T07:39:16;23.20;99.90
2687;DHT22;1353;51.386;7.028;2022-07-23T07:41:44;22.70;99.90
2687;DHT22;1353;51.386;7.028;2022-07-23T07:44:11;23.80;99.90
2687;DHT22;1353;51.386;7.028;2022-07-23T07:46:38;22.10;99.90
2687;DHT22;1353;51.386;7.028;2022-07-23T07:49:05;21.30;99.90
2687;DHT22;1353;51.386;7.028;2022-07-23T07:51:31;21.80;99.90
2687;DHT22;1353;51.386;7.028;2022-07-23T07:54:00;22.90;99.90
2687;DHT22;1353;51.386;7.028;2022-07-23T07:56:26;22.70;99.90
2687;DHT22;1353;51.386;7.028;2022-07-23T07:58:55;23.40;99.90
2687;DHT22;1353;51.386;7.028;2022-07-23T08:01:21;23.50;99.90
2687;DHT22;1353;51.386;7.028;2022-07-23T08:03:48;22.80;99.90
2687;DHT22;1353;51.386;7.028;2022-07-23T08:06:15;23.40;99.90
2687;DHT22;1353;51.386;7.028;2022-07-23T08:08:42;23.40;99.90
2687;DHT22;1353;51.386;7.028;2022-07-23T08:11:08;24.50;99.90
2687;DHT22;1353;51.386;7.028;2022-07-23T08:13:35;23.50;99.90
2687;DHT22;1353;51.386;7.028;2022-07-23T08:16:04;23.70;99.90
2687;DHT22;1353;51.386;7.028;2022-07-23T08:18:31;25.80;99.90
2687;DHT22;1353;51.386;7.028;2022-07-23T08:20:57;25.70;99.90
2687;DHT22;1353;51.386;7.028;2022-07-23T08:23:24;25.70;99.90
2687;DHT22;1353;51.386;7.028;2022-07-23T08:25:53;25.40;99.90
2687;DHT22;1353;51.386;7.028;2022-07-23T08:28:19;24.50;99.90
2687;DHT22;1353;51.386;7.028;2022-07-23T08:30:46;25.20;99.90
2687;DHT22;1353;51.386;7.028;2022-07-23T08:33:16;25.70;99.90
2687;DHT22;1353;51.386;7.028;2022-07-23T08:35:45;26.90;99.90
2687;DHT22;1353;51.386;7.028;2022-07-23T08:38:13;25.30;99.90
2687;DHT22;1353;51.386;7.028;2022-07-23T08:40:41;26.40;99.90
2687;DHT22;1353;51.386;7.028;2022-07-23T08:43:11;26.20;99.90
2687;DHT22;1353;51.386;7.028;2022-07-23T08:45:40;26.80;99.70
2687;DHT22;1353;51.386;7.028;2022-07-23T08:48:09;26.40;96.00
2687;DHT22;1353;51.386;7.028;2022-07-23T08:50:42;26.00;97.30
2687;DHT22;1353;51.386;7.028;2022-07-23T08:53:10;25.80;94.10
2687;DHT22;1353;51.386;7.028;2022-07-23T08:55:37;26.10;94.50
2687;DHT22;1353;51.386;7.028;2022-07-23T08:58:04;27.80;91.00
2687;DHT22;1353;51.386;7.028;2022-07-23T09:00:31;28.90;84.90
2687;DHT22;1353;51.386;7.028;2022-07-23T09:02:58;27.40;86.70
2687;DHT22;1353;51.386;7.028;2022-07-23T09:05:25;26.60;80.40
2687;DHT22;1353;51.386;7.028;2022-07-23T09:08:08;25.70;89.20
2687;DHT22;1353;51.386;7.028;2022-07-23T09:10:47;27.50;84.10
2687;DHT22;1353;51.386;7.028;2022-07-23T09:13:24;28.30;77.00
2687;DHT22;1353;51.386;7.028;2022-07-23T09:15:52;26.00;83.80
2687;DHT22;1353;51.386;7.028;2022-07-23T09:18:18;26.40;80.30
2687;DHT22;1353;51.386;7.028;2022-07-23T09:20:45;25.30;80.80
2687;DHT22;1353;51.386;7.028;2022-07-23T09:23:13;23.60;85.90
2687;DHT22;1353;51.386;7.028;2022-07-23T09:25:40;25.10;79.30
2687;DHT22;1353;51.386;7.028;2022-07-23T09:28:07;27.00;77.50
2687;DHT22;1353;51.386;7.028;2022-07-23T09:30:33;27.10;77.90
2687;DHT22;1353;51.386;7.028;2022-07-23T09:33:06;28.30;69.80
2687;DHT22;1353;51.386;7.028;2022-07-23T09:35:44;25.60;69.20
2687;DHT22;1353;51.386;7.028;2022-07-23T09:38:13;28.30;70.70
2687;DHT22;1353;51.386;7.028;2022-07-23T09:40:40;28.80;66.20
2687;DHT22;1353;51.386;7.028;2022-07-23T09:43:07;27.20;65.30
2687;DHT22;1353;51.386;7.028;2022-07-23T09:45:34;28.60;60.60
2687;DHT22;1353;51.386;7.028;2022-07-23T09:48:11;28.20;59.70
2687;DHT22;1353;51.386;7.028;2022-07-23T09:50:39;29.90;57.80
2687;DHT22;1353;51.386;7.028;2022-07-23T09:53:06;28.50;53.00
2687;DHT22;1353;51.386;7.028;2022-07-23T09:55:35;27.90;54.60
2687;DHT22;1353;51.386;7.028;2022-07-23T09:58:04;26.40;55.30
2687;DHT22;1353;51.386;7.028;2022-07-23T10:00:32;29.30;52.80
2687;DHT22;1353;51.386;7.028;2022-07-23T10:03:00;28.20;56.20
2687;DHT22;1353;51.386;7.028;2022-07-23T10:05:29;28.50;54.20
2687;DHT22;1353;51.386;7.028;2022-07-23T10:07:57;27.50;54.20
2687;DHT22;1353;51.386;7.028;2022-07-23T10:10:26;28.90;51.00
2687;DHT22;1353;51.386;7.028;2022-07-23T10:12:55;31.00;48.30
2687;DHT22;1353;51.386;7.028;2022-07-23T10:15:39;28.50;50.80
2687;DHT22;1353;51.386;7.028;2022-07-23T10:18:06;28.30;51.30
2687;DHT22;1353;51.386;7.028;2022-07-23T10:20:33;28.00;52.20
2687;DHT22;1353;51.386;7.028;2022-07-23T10:23:07;27.30;49.60
2687;DHT22;1353;51.386;7.028;2022-07-23T10:25:41;25.70;50.90
2687;DHT22;1353;51.386;7.028;2022-07-23T10:28:22;28.30;49.20
2687;DHT22;1353;51.386;7.028;2022-07-23T10:31:05;31.30;43.70
2687;DHT22;1353;51.386;7.028;2022-07-23T10:33:47;31.10;42.60
2687;DHT22;1353;51.386;7.028;2022-07-23T10:36:20;28.30;45.60
2687;DHT22;1353;51.386;7.028;2022-07-23T10:38:52;26.90;47.30
2687;DHT22;1353;51.386;7.028;2022-07-23T10:41:34;29.30;45.00
2687;DHT22;1353;51.386;7.028;2022-07-23T10:44:10;28.10;46.00
2687;DHT22;1353;51.386;7.028;2022-07-23T10:46:56;27.90;46.40
2687;DHT22;1353;51.386;7.028;2022-07-23T10:49:37;28.70;44.30
2687;DHT22;1353;51.386;7.028;2022-07-23T10:52:23;29.00;43.70
2687;DHT22;1353;51.386;7.028;2022-07-23T10:54:52;27.80;45.40
2687;DHT22;1353;51.386;7.028;2022-07-23T10:57:21;28.10;44.20
2687;DHT22;1353;51.386;7.028;2022-07-23T11:00:21;29.60;42.00
2687;DHT22;1353;51.386;7.028;2022-07-23T11:02:49;31.10;38.90
2687;DHT22;1353;51.386;7.028;2022-07-23T11:05:18;30.60;37.50
2687;DHT22;1353;51.386;7.028;2022-07-23T11:08:14;31.00;37.30
2687;DHT22;1353;51.386;7.028;2022-07-23T11:10:43;31.20;35.20
2687;DHT22;1353;51.386;7.028;2022-07-23T11:13:31;31.90;35.30
2687;DHT22;1353;51.386;7.028;2022-07-23T11:16:08;31.50;33.90
2687;DHT22;1353;51.386;7.028;2022-07-23T11:18:55;29.20;37.60
2687;DHT22;1353;51.386;7.028;2022-07-23T11:21:55;29.10;39.30
2687;DHT22;1353;51.386;7.028;2022-07-23T11:24:23;29.10;38.60
2687;DHT22;1353;51.386;7.028;2022-07-23T11:26:55;29.10;36.50
2687;DHT22;1353;51.386;7.028;2022-07-23T11:29:39;28.00;35.40
2687;DHT22;1353;51.386;7.028;2022-07-23T11:32:17;29.20;37.10
2687;DHT22;1353;51.386;7.028;2022-07-23T11:34:46;29.10;34.40
2687;DHT22;1353;51.386;7.028;2022-07-23T11:37:27;28.80;35.30
2687;DHT22;1353;51.386;7.028;2022-07-23T11:39:54;29.40;34.80
2687;DHT22;1353;51.386;7.028;2022-07-23T11:42:21;29.50;35.30
2687;DHT22;1353;51.386;7.028;2022-07-23T11:44:50;28.20;33.30
2687;DHT22;1353;51.386;7.028;2022-07-23T11:47:23;26.20;36.00
2687;DHT22;1353;51.386;7.028;2022-07-23T11:49:53;29.40;34.10
2687;DHT22;1353;51.386;7.028;2022-07-23T11:52:21;28.90;34.60
2687;DHT22;1353;51.386;7.028;2022-07-23T11:54:50;27.70;35.20
2687;DHT22;1353;51.386;7.028;2022-07-23T11:57:18;28.30;34.60
2687;DHT22;1353;51.386;7.028;2022-07-23T11:59:47;29.00;35.60
2687;DHT22;1353;51.386;7.028;2022-07-23T12:02:14;29.60;34.40
2687;DHT22;1353;51.386;7.028;2022-07-23T12:04:44;31.70;30.60
2687;DHT22;1353;51.386;7.028;2022-07-23T12:07:28;30.90;29.40
2687;DHT22;1353;51.386;7.028;2022-07-23T12:09:56;29.90;29.30
2687;DHT22;1353;51.386;7.028;2022-07-23T12:12:23;30.60;30.00
2687;DHT22;1353;51.386;7.028;2022-07-23T12:14:53;29.50;30.70
2687;DHT22;1353;51.386;7.028;2022-07-23T12:17:21;29.20;30.90
2687;DHT22;1353;51.386;7.028;2022-07-23T12:19:49;29.70;29.80
2687;DHT22;1353;51.386;7.028;2022-07-23T12:22:16;29.30;30.00
2687;DHT22;1353;51.386;7.028;2022-07-23T12:24:53;27.50;32.00
2687;DHT22;1353;51.386;7.028;2022-07-23T12:27:20;28.70;32.60
2687;DHT22;1353;51.386;7.028;2022-07-23T12:29:47;29.40;31.70
2687;DHT22;1353;51.386;7.028;2022-07-23T12:32:19;30.50;29.50
2687;DHT22;1353;51.386;7.028;2022-07-23T12:34:50;31.00;29.50
2687;DHT22;1353;51.386;7.028;2022-07-23T12:37:27;29.80;29.10
2687;DHT22;1353;51.386;7.028;2022-07-23T12:39:54;29.30;29.60
2687;DHT22;1353;51.386;7.028;2022-07-23T12:42:21;29.50;28.70
2687;DHT22;1353;51.386;7.028;2022-07-23T12:45:09;29.40;29.90
2687;DHT22;1353;51.386;7.028;2022-07-23T12:48:00;28.50;29.30
2687;DHT22;1353;51.386;7.028;2022-07-23T12:50:38;26.90;31.40
2687;DHT22;1353;51.386;7.028;2022-07-23T12:53:08;27.50;31.80
2687;DHT22;1353;51.386;7.028;2022-07-23T12:55:36;27.70;32.60
2687;DHT22;1353;51.386;7.028;2022-07-23T12:58:06;28.40;29.90
2687;DHT22;1353;51.386;7.028;2022-07-23T13:00:56;28.00;29.40
2687;DHT22;1353;51.386;7.028;2022-07-23T13:03:25;26.30;30.90
2687;DHT22;1353;51.386;7.028;2022-07-23T13:05:53;28.10;31.00
2687;DHT22;1353;51.386;7.028;2022-07-23T13:08:21;27.60;30.40
2687;DHT22;1353;51.386;7.028;2022-07-23T13:10:48;30.00;29.40
2687;DHT22;1353;51.386;7.028;2022-07-23T13:13:17;30.40;29.10
2687;DHT22;1353;51.386;7.028;2022-07-23T13:15:44;31.10;27.10
2687;DHT22;1353;51.386;7.028;2022-07-23T13:18:10;31.20;26.20
2687;DHT22;1353;51.386;7.028;2022-07-23T13:20:38;30.60;27.80
2687;DHT22;1353;51.386;7.028;2022-07-23T13:23:06;32.20;26.20
2687;DHT22;1353;51.386;7.028;2022-07-23T13:25:33;30.50;26.70
2687;DHT22;1353;51.386;7.028;2022-07-23T13:28:00;29.20;27.30
2687;DHT22;1353;51.386;7.028;2022-07-23T13:30:27;27.90;27.90
2687;DHT22;1353;51.386;7.028;2022-07-23T13:32:54;30.00;28.20
2687;DHT22;1353;51.386;7.028;2022-07-23T13:35:21;29.60;28.30
2687;DHT22;1353;51.386;7.028;2022-07-23T13:37:47;29.20;29.00
2687;DHT22;1353;51.386;7.028;2022-07-23T13:40:16;28.50;29.30
2687;DHT22;1353;51.386;7.028;2022-07-23T13:42:42;29.30;29.40
2687;DHT22;1353;51.386;7.028;2022-07-23T13:45:09;29.50;29.00
2687;DHT22;1353;51.386;7.028;2022-07-23T13:47:36;30.40;28.10
2687;DHT22;1353;51.386;7.028;2022-07-23T13:50:04;29.90;28.20
2687;DHT22;1353;51.386;7.028;2022-07-23T13:52:31;30.90;27.40
2687;DHT22;1353;51.386;7.028;2022-07-23T13:54:59;31.20;26.20
2687;DHT22;1353;51.386;7.028;2022-07-23T13:57:27;29.50;26.20
2687;DHT22;1353;51.386;7.028;2022-07-23T13:59:55;27.40;28.60
2687;DHT22;1353;51.386;7.028;2022-07-23T14:02:21;27.40;28.70
2687;DHT22;1353;51.386;7.028;2022-07-23T14:04:49;27.50;28.50
2687;DHT22;1353;51.386;7.028;2022-07-23T14:07:16;27.40;29.20
2687;DHT22;1353;51.386;7.028;2022-07-23T14:09:43;28.10;28.40
2687;DHT22;1353;51.386;7.028;2022-07-23T14:12:10;28.40;28.10
2687;DHT22;1353;51.386;7.028;2022-07-23T14:14:39;28.50;28.70
2687;DHT22;1353;51.386;7.028;2022-07-23T14:17:05;28.60;28.20
2687;DHT22;1353;51.386;7.028;2022-07-23T14:19:32;28.50;27.50
2687;DHT22;1353;51.386;7.028;2022-07-23T14:21:59;27.90;28.00
2687;DHT22;1353;51.386;7.028;2022-07-23T14:24:26;28.80;26.30
2687;DHT22;1353;51.386;7.028;2022-07-23T14:26:52;28.40;26.50
2687;DHT22;1353;51.386;7.028;2022-07-23T14:29:19;28.00;27.20
2687;DHT22;1353;51.386;7.028;2022-07-23T14:31:47;28.00;27.40
2687;DHT22;1353;51.386;7.028;2022-07-23T14:34:14;27.10;27.10
2687;DHT22;1353;51.386;7.028;2022-07-23T14:36:41;27.10;28.10
2687;DHT22;1353;51.386;7.028;2022-07-23T14:39:08;27.10;29.20
2687;DHT22;1353;51.386;7.028;2022-07-23T14:41:35;26.60;30.00
2687;DHT22;1353;51.386;7.028;2022-07-23T14:44:02;25.80;29.90
2687;DHT22;1353;51.386;7.028;2022-07-23T14:46:29;26.20;30.00
2687;DHT22;1353;51.386;7.028;2022-07-23T14:48:57;26.80;28.90
2687;DHT22;1353;51.386;7.028;2022-07-23T14:51:24;26.50;28.90
2687;DHT22;1353;51.386;7.028;2022-07-23T14:53:51;25.90;29.20
2687;DHT22;1353;51.386;7.028;2022-07-23T14:56:17;26.20;29.20
2687;DHT22;1353;51.386;7.028;2022-07-23T14:58:45;26.40;30.10
2687;DHT22;1353;51.386;7.028;2022-07-23T15:01:11;26.80;29.30
2687;DHT22;1353;51.386;7.028;2022-07-23T15:03:38;26.40;29.80
2687;DHT22;1353;51.386;7.028;2022-07-23T15:06:07;25.90;29.70
2687;DHT22;1353;51.386;7.028;2022-07-23T15:08:34;25.30;30.80
2687;DHT22;1353;51.386;7.028;2022-07-23T15:11:00;26.40;29.20
2687;DHT22;1353;51.386;7.028;2022-07-23T15:13:27;25.70;31.40
2687;DHT22;1353;51.386;7.028;2022-07-23T15:15:54;25.80;31.20
2687;DHT22;1353;51.386;7.028;2022-07-23T15:18:21;26.30;29.70
2687;DHT22;1353;51.386;7.028;2022-07-23T15:20:47;26.80;29.80
2687;DHT22;1353;51.386;7.028;2022-07-23T15:23:15;26.20;29.10
2687;DHT22;1353;51.386;7.028;2022-07-23T15:25:42;27.10;29.50
2687;DHT22;1353;51.386;7.028;2022-07-23T15:28:09;26.90;29.90
2687;DHT22;1353;51.386;7.028;2022-07-23T15:30:36;26.90;30.00
2687;DHT22;1353;51.386;7.028;2022-07-23T15:33:03;26.30;28.80
2687;DHT22;1353;51.386;7.028;2022-07-23T15:35:31;26.20;30.00
2687;DHT22;1353;51.386;7.028;2022-07-23T15:37:57;26.40;30.40
2687;DHT22;1353;51.386;7.028;2022-07-23T15:40:25;26.20;29.70
2687;DHT22;1353;51.386;7.028;2022-07-23T15:42:52;26.00;29.60
2687;DHT22;1353;51.386;7.028;2022-07-23T15:45:19;25.90;30.10
2687;DHT22;1353;51.386;7.028;2022-07-23T15:47:47;25.80;30.70
2687;DHT22;1353;51.386;7.028;2022-07-23T15:50:14;25.30;31.00
2687;DHT22;1353;51.386;7.028;2022-07-23T15:52:41;25.40;31.50
2687;DHT22;1353;51.386;7.028;2022-07-23T15:55:08;25.50;31.00
2687;DHT22;1353;51.386;7.028;2022-07-23T15:57:36;25.40;31.30
2687;DHT22;1353;51.386;7.028;2022-07-23T16:00:05;25.80;31.20
2687;DHT22;1353;51.386;7.028;2022-07-23T16:02:32;25.70;31.30
2687;DHT22;1353;51.386;7.028;2022-07-23T16:04:59;25.70;30.90
2687;DHT22;1353;51.386;7.028;2022-07-23T16:07:26;25.60;30.90
2687;DHT22;1353;51.386;7.028;2022-07-23T16:09:53;25.40;31.10